Time;durP1;ratioP1;P1;durP2;ratioP2;P2;SDS_P1;SDS_P2;PMS_P1;PMS_P2;Temp;Humidity;BMP_temperature;BMP_pressure;BME280_temperature;BME280_humidity;BME280_pressure;Samples;Min_cycle;Max_cycle;Signal;HPM_P1;HPM_P2
2021/07/19 00:01:10;;;;;;;9.50;4.27;;;19.20;99.90;;;;;;5053628;28;20982;-76
2021/07/19 00:03:52;;;;;;;6.07;3.80;;;19.10;99.90;;;;;;5045524;28;20853;-76
2021/07/19 00:06:22;;;;;;;9.93;3.63;;;19.10;99.90;;;;;;5035322;28;20827;-76
2021/07/19 00:08:48;;;;;;;17.07;4.03;;;19.10;99.90;;;;;;5035664;28;20410;-76
2021/07/19 00:11:14;;;;;;;10.73;4.30;;;19.00;99.90;;;;;;5035886;28;20415;-76
2021/07/19 00:13:40;;;;;;;5.20;3.90;;;19.10;99.90;;;;;;5049997;28;20237;-75
2021/07/19 00:16:06;;;;;;;16.93;3.80;;;19.10;99.90;;;;;;5045094;28;20450;-75
2021/07/19 00:18:40;;;;;;;6.63;4.00;;;19.00;99.90;;;;;;5050870;28;21003;-75
2021/07/19 00:21:10;;;;;;;11.90;4.37;;;19.00;99.90;;;;;;5042145;28;20467;-75
2021/07/19 00:23:36;;;;;;;10.10;3.33;;;19.00;99.90;;;;;;5035015;28;20368;-75
2021/07/19 00:26:02;;;;;;;7.40;3.93;;;18.90;99.90;;;;;;5035059;28;20405;-75
2021/07/19 00:28:27;;;;;;;6.07;3.87;;;18.90;99.90;;;;;;5035168;28;20171;-76
2021/07/19 00:30:59;;;;;;;7.60;3.73;;;18.90;99.90;;;;;;5034464;28;20459;-76
2021/07/19 00:33:46;;;;;;;10.23;4.00;;;18.90;99.90;;;;;;5045647;28;20174;-76
2021/07/19 00:36:16;;;;;;;4.47;3.67;;;18.90;99.90;;;;;;5054476;28;20389;-76
2021/07/19 00:38:42;;;;;;;10.43;4.47;;;18.80;99.90;;;;;;5054136;28;20429;-76
2021/07/19 00:41:08;;;;;;;12.53;4.50;;;18.80;99.90;;;;;;5051932;28;20459;-76
2021/07/19 00:43:34;;;;;;;8.00;4.00;;;18.90;99.90;;;;;;5042145;28;20620;-76
2021/07/19 00:45:59;;;;;;;5.60;4.57;;;18.80;99.90;;;;;;5037392;28;20163;-76
2021/07/19 00:51:52;;;;;;;8.60;4.13;;;18.80;99.90;;;;;;5034866;28;20751;-76
2021/07/19 00:54:30;;;;;;;6.00;3.60;;;18.70;99.90;;;;;;5066395;28;20811;-76
2021/07/19 00:57:01;;;;;;;6.80;4.60;;;18.70;99.90;;;;;;5035110;28;20409;-76
2021/07/19 00:59:35;;;;;;;4.67;4.10;;;18.70;99.90;;;;;;5054494;28;21036;-76
2021/07/19 01:02:18;;;;;;;5.07;4.00;;;18.60;99.90;;;;;;5049966;28;20384;-76
2021/07/19 01:04:46;;;;;;;7.13;4.33;;;18.60;99.90;;;;;;5053808;28;20417;-76
2021/07/19 01:07:31;;;;;;;6.50;3.97;;;18.60;99.90;;;;;;5034225;28;20395;-76
2021/07/19 01:09:57;;;;;;;7.93;4.00;;;18.60;99.90;;;;;;5034085;28;20409;-77
2021/07/19 01:12:29;;;;;;;6.43;3.97;;;18.60;99.90;;;;;;5047195;28;20416;-76
2021/07/19 01:14:58;;;;;;;8.97;3.77;;;18.60;99.90;;;;;;5054410;28;20409;-76
2021/07/19 01:17:28;;;;;;;5.07;3.60;;;18.50;99.90;;;;;;5040147;28;20802;-75
2021/07/19 01:20:05;;;;;;;11.83;4.53;;;18.50;99.90;;;;;;5052816;28;20825;-76
2021/07/19 01:23:18;;;;;;;11.03;4.20;;;18.50;99.90;;;;;;5043828;28;20392;-75
2021/07/19 01:25:54;;;;;;;6.77;4.53;;;18.50;99.90;;;;;;4992370;28;20431;-75
2021/07/19 01:28:31;;;;;;;9.53;5.00;;;18.40;99.90;;;;;;4992492;28;20895;-75
2021/07/19 01:31:04;;;;;;;7.13;4.67;;;18.40;99.90;;;;;;4999880;28;20422;-75
2021/07/19 01:33:31;;;;;;;9.03;4.60;;;18.40;99.90;;;;;;5011336;28;20403;-75
2021/07/19 01:35:59;;;;;;;10.20;4.63;;;18.30;99.90;;;;;;5011489;28;20433;-76
2021/07/19 01:38:35;;;;;;;14.67;4.73;;;18.30;99.90;;;;;;5011457;28;20422;-75
2021/07/19 01:41:05;;;;;;;6.63;4.83;;;18.30;99.90;;;;;;5011442;28;20462;-76
2021/07/19 01:43:31;;;;;;;8.87;4.30;;;18.20;99.90;;;;;;5010886;28;20452;-75
2021/07/19 01:45:59;;;;;;;9.33;5.67;;;18.20;99.90;;;;;;5011354;28;20508;-76
2021/07/19 01:48:31;;;;;;;7.40;4.70;;;18.20;99.90;;;;;;5011533;28;20419;-75
2021/07/19 01:51:05;;;;;;;8.57;4.70;;;18.10;99.90;;;;;;5010998;28;20924;-75
2021/07/19 01:53:34;;;;;;;5.70;4.63;;;18.10;99.90;;;;;;5011262;28;20884;-75
2021/07/19 01:56:01;;;;;;;10.00;4.33;;;18.10;99.90;;;;;;5011885;28;20530;-75
2021/07/19 01:58:41;;;;;;;10.60;5.20;;;18.00;99.90;;;;;;5011095;28;20879;-75
2021/07/19 02:01:07;;;;;;;7.40;4.80;;;18.00;99.90;;;;;;5009675;28;20546;-76
2021/07/19 02:03:33;;;;;;;13.60;4.90;;;18.00;99.90;;;;;;5033323;28;20427;-76
2021/07/19 02:06:07;;;;;;;11.70;5.00;;;18.00;99.90;;;;;;5033370;28;20361;-76
2021/07/19 02:08:36;;;;;;;8.17;5.00;;;18.00;99.90;;;;;;5033669;28;20205;-76
2021/07/19 02:11:03;;;;;;;10.07;5.43;;;17.90;99.90;;;;;;5042521;28;20395;-77
2021/07/19 02:13:32;;;;;;;14.93;5.23;;;17.90;99.90;;;;;;5053325;28;20366;-76
2021/07/19 02:15:59;;;;;;;6.13;4.30;;;17.90;99.90;;;;;;5053926;28;20864;-76
2021/07/19 02:18:37;;;;;;;9.43;4.63;;;17.90;99.90;;;;;;5052996;28;20395;-76
2021/07/19 02:21:22;;;;;;;9.97;4.73;;;17.80;99.90;;;;;;5046438;28;20442;-76
2021/07/19 02:24:00;;;;;;;6.43;4.40;;;17.80;99.90;;;;;;5034637;28;20804;-76
2021/07/19 02:26:40;;;;;;;6.30;4.20;;;17.80;99.90;;;;;;5049104;28;20520;-76
2021/07/19 02:29:24;;;;;;;7.93;4.60;;;17.80;99.90;;;;;;5047985;28;20401;-76
2021/07/19 02:31:50;;;;;;;15.03;4.90;;;17.70;99.90;;;;;;5046541;28;20493;-76
2021/07/19 02:34:23;;;;;;;12.50;5.50;;;17.70;99.90;;;;;;5045734;28;20906;-76
2021/07/19 02:36:53;;;;;;;9.80;5.30;;;17.70;99.90;;;;;;5033311;28;20404;-76
2021/07/19 02:39:20;;;;;;;9.47;4.80;;;17.70;99.90;;;;;;5032878;28;20455;-76
2021/07/19 02:41:47;;;;;;;12.27;5.17;;;17.70;99.90;;;;;;5033554;28;20418;-76
2021/07/19 02:44:14;;;;;;;8.93;4.47;;;17.70;99.90;;;;;;5051695;28;20396;-76
2021/07/19 02:46:50;;;;;;;6.57;4.43;;;17.70;99.90;;;;;;5043180;28;20418;-76
2021/07/19 02:49:29;;;;;;;6.37;4.20;;;17.70;99.90;;;;;;5033334;28;20363;-76
2021/07/19 02:51:56;;;;;;;9.27;5.17;;;17.60;99.90;;;;;;5043607;28;20408;-76
2021/07/19 02:54:28;;;;;;;7.73;4.43;;;17.60;99.90;;;;;;5033189;28;20396;-76
2021/07/19 02:56:55;;;;;;;9.23;5.10;;;17.60;99.90;;;;;;5036827;28;20408;-76
2021/07/19 02:59:23;;;;;;;9.30;5.23;;;17.60;99.90;;;;;;5036423;28;20430;-76
2021/07/19 03:01:52;;;;;;;6.33;4.83;;;17.60;99.90;;;;;;5038593;28;20853;-76
2021/07/19 03:04:30;;;;;;;6.37;4.60;;;17.60;99.90;;;;;;5053174;28;20885;-75
2021/07/19 03:07:00;;;;;;;11.17;5.57;;;17.50;99.90;;;;;;5049800;28;20416;-75
2021/07/19 03:09:32;;;;;;;9.60;4.90;;;17.60;99.90;;;;;;5040885;28;20462;-75
2021/07/19 03:12:00;;;;;;;6.50;4.53;;;17.50;99.90;;;;;;5051893;28;20387;-75
2021/07/19 03:14:33;;;;;;;10.40;4.97;;;17.50;99.90;;;;;;5056267;28;20397;-75
2021/07/19 03:16:58;;;;;;;8.27;4.63;;;17.50;99.90;;;;;;5056156;28;20842;-76
2021/07/19 03:19:29;;;;;;;6.73;4.70;;;17.50;99.90;;;;;;5055968;28;20440;-75
2021/07/19 03:22:06;;;;;;;8.80;4.60;;;17.50;99.90;;;;;;5043400;28;20401;-75
2021/07/19 03:24:34;;;;;;;7.27;5.10;;;17.50;99.90;;;;;;5056083;28;20416;-75
2021/07/19 03:27:10;;;;;;;7.50;4.30;;;17.50;99.90;;;;;;5055759;28;20409;-75
2021/07/19 03:29:53;;;;;;;8.03;5.27;;;17.50;99.90;;;;;;5056104;28;20459;-75
2021/07/19 03:32:28;;;;;;;5.70;4.37;;;17.50;99.90;;;;;;5045085;28;20482;-76
2021/07/19 03:34:59;;;;;;;7.50;5.03;;;17.50;99.90;;;;;;5037616;28;20387;-76
2021/07/19 03:37:59;;;;;;;11.03;4.53;;;17.60;99.90;;;;;;5035827;28;20404;-76
2021/07/19 03:40:25;;;;;;;8.70;4.63;;;17.50;99.90;;;;;;5045624;28;20533;-76
2021/07/19 03:42:57;;;;;;;7.43;4.43;;;17.50;99.90;;;;;;5035837;28;20415;-76
2021/07/19 03:45:29;;;;;;;5.20;4.67;;;17.60;99.90;;;;;;5036165;28;20372;-76
2021/07/19 03:48:00;;;;;;;9.73;4.93;;;17.60;99.90;;;;;;5035579;28;20416;-76
2021/07/19 03:50:31;;;;;;;6.30;5.10;;;17.60;99.90;;;;;;5035983;28;20445;-76
2021/07/19 03:53:11;;;;;;;12.10;4.50;;;17.60;99.90;;;;;;5041754;28;20417;-76
2021/07/19 03:55:38;;;;;;;7.57;4.90;;;17.60;99.90;;;;;;5055852;28;20388;-76
2021/07/19 03:58:30;;;;;;;8.83;4.47;;;17.70;99.90;;;;;;5055127;28;20793;-76
2021/07/19 04:01:00;;;;;;;9.40;5.40;;;17.70;99.90;;;;;;5048079;28;20505;-76
2021/07/19 04:03:54;;;;;;;6.13;4.50;;;17.70;99.90;;;;;;5051751;28;20378;-76
2021/07/19 04:06:28;;;;;;;11.60;4.97;;;17.70;99.90;;;;;;5050897;28;20466;-76
2021/07/19 04:09:29;;;;;;;15.93;4.17;;;17.80;99.90;;;;;;5035296;28;20864;-76
2021/07/19 04:12:28;;;;;;;9.43;5.33;;;17.80;99.90;;;;;;5034856;28;20376;-76
2021/07/19 04:14:54;;;;;;;9.90;4.77;;;17.90;99.90;;;;;;5046697;28;20408;-76
2021/07/19 04:17:22;;;;;;;12.20;5.60;;;17.90;99.90;;;;;;5039410;28;20394;-76
2021/07/19 04:19:52;;;;;;;8.37;5.07;;;17.90;99.90;;;;;;5047557;28;20538;-76
2021/07/19 04:22:31;;;;;;;11.43;5.07;;;17.90;99.90;;;;;;5054709;28;20484;-76
2021/07/19 04:25:28;;;;;;;7.50;4.30;;;18.00;99.90;;;;;;5055006;28;20399;-77
2021/07/19 04:27:58;;;;;;;10.33;4.80;;;18.10;99.90;;;;;;5053294;28;20413;-77
2021/07/19 04:30:46;;;;;;;6.60;4.60;;;18.10;99.90;;;;;;5042965;28;20837;-79
2021/07/19 04:33:23;;;;;;;10.47;4.33;;;18.10;99.90;;;;;;5034717;28;20440;-76
2021/07/19 04:35:52;;;;;;;7.33;4.60;;;18.10;99.90;;;;;;5034244;28;20839;-76
2021/07/19 04:38:30;;;;;;;11.80;5.20;;;18.10;99.90;;;;;;5034774;28;20404;-76
2021/07/19 04:41:28;;;;;;;9.07;5.17;;;18.20;99.90;;;;;;5046754;28;20460;-76
2021/07/19 04:43:54;;;;;;;11.60;4.80;;;18.30;99.90;;;;;;5054610;28;20379;-76
2021/07/19 04:46:29;;;;;;;7.70;5.07;;;18.30;99.90;;;;;;5047664;28;20482;-79
2021/07/19 04:48:58;;;;;;;8.57;4.47;;;18.40;99.90;;;;;;5053683;28;20235;-79
2021/07/19 04:51:29;;;;;;;7.17;4.27;;;18.40;99.90;;;;;;5054273;28;20382;-79
2021/07/19 04:53:59;;;;;;;11.77;5.20;;;18.50;99.90;;;;;;5054215;28;20387;-79
2021/07/19 04:56:59;;;;;;;8.10;4.70;;;18.50;99.90;;;;;;5054079;28;20400;-79
2021/07/19 04:59:32;;;;;;;9.97;5.00;;;18.50;99.90;;;;;;5048761;28;20398;-78
2021/07/19 05:01:59;;;;;;;6.40;4.50;;;18.60;99.90;;;;;;5054336;28;20474;-77
2021/07/19 05:04:29;;;;;;;14.03;4.40;;;18.60;99.90;;;;;;5054563;28;20372;-76
2021/07/19 05:06:59;;;;;;;7.20;4.63;;;18.60;99.90;;;;;;5052069;28;20416;-76
2021/07/19 05:09:25;;;;;;;8.20;4.73;;;18.80;99.90;;;;;;5044991;28;20436;-76
2021/07/19 05:11:53;;;;;;;8.63;5.10;;;18.80;99.90;;;;;;5034164;28;20421;-76
2021/07/19 05:14:29;;;;;;;12.40;5.40;;;18.90;99.90;;;;;;5044937;28;20933;-76
2021/07/19 05:16:57;;;;;;;7.20;4.30;;;18.90;99.90;;;;;;5046816;28;20443;-79
2021/07/19 05:19:23;;;;;;;11.50;4.70;;;;;;;;;;5049953;28;20420;-79
2021/07/19 05:21:49;;;;;;;6.60;4.53;;;;;;;;;;5053013;28;20470;-79
2021/07/19 05:24:14;;;;;;;10.73;4.37;;;19.00;99.90;;;;;;5049457;28;20970;-79
2021/07/19 05:26:40;;;;;;;12.43;4.97;;;19.10;99.90;;;;;;5033032;28;20391;-82
2021/07/19 05:29:06;;;;;;;8.87;5.13;;;19.20;99.90;;;;;;5034074;28;20647;-82
2021/07/19 05:31:32;;;;;;;13.30;4.37;;;;;;;;;;5044827;28;20179;-81
2021/07/19 05:33:58;;;;;;;7.60;4.83;;;19.30;99.90;;;;;;5037294;28;20214;-81
2021/07/19 05:36:24;;;;;;;7.30;4.80;;;;;;;;;;5050840;28;20968;-82
2021/07/19 05:38:50;;;;;;;7.73;4.27;;;;;;;;;;5051074;28;20187;-81
2021/07/19 05:41:15;;;;;;;7.03;4.63;;;19.40;99.90;;;;;;5052730;28;20473;-83
2021/07/19 05:43:41;;;;;;;7.23;4.20;;;19.60;99.90;;;;;;5051356;28;20458;-79
2021/07/19 05:46:07;;;;;;;5.53;4.70;;;;;;;;;;5049560;28;20185;-80
2021/07/19 05:48:33;;;;;;;6.10;4.17;;;;;;;;;;5042499;28;20171;-80
2021/07/19 05:50:59;;;;;;;9.37;4.40;;;;;;;;;;5047604;28;20821;-85
2021/07/19 05:53:25;;;;;;;6.60;4.50;;;19.70;99.90;;;;;;5041322;28;20429;-85
2021/07/19 05:55:52;;;;;;;6.90;4.20;;;19.80;99.90;;;;;;5036414;28;20442;-83
2021/07/19 05:58:18;;;;;;;10.93;5.10;;;19.80;99.90;;;;;;5039678;28;20175;-83
2021/07/19 06:00:45;;;;;;;10.70;4.40;;;19.90;99.90;;;;;;5048717;28;20466;-84
2021/07/19 06:03:11;;;;;;;8.57;4.13;;;19.80;99.90;;;;;;5053110;28;20405;-84
2021/07/19 06:05:36;;;;;;;9.77;4.10;;;20.00;99.90;;;;;;5042890;28;20452;-83
2021/07/19 06:08:03;;;;;;;6.73;4.60;;;20.10;99.90;;;;;;5032697;28;20896;-83
2021/07/19 06:10:29;;;;;;;6.67;4.33;;;20.10;99.90;;;;;;5035440;28;20192;-83
2021/07/19 06:12:55;;;;;;;9.07;4.50;;;20.20;99.90;;;;;;5050226;28;20426;-84
2021/07/19 06:15:21;;;;;;;10.50;4.27;;;;;;;;;;5047097;28;20192;-82
2021/07/19 06:17:47;;;;;;;12.07;5.67;;;;;;;;;;5041798;28;20401;-81
2021/07/19 06:20:30;;;;;;;11.60;4.93;;;20.30;99.90;;;;;;5051863;28;20462;-82
2021/07/19 06:23:01;;;;;;;5.97;4.47;;;20.40;99.90;;;;;;5052186;28;20376;-82
2021/07/19 06:25:52;;;;;;;7.07;3.90;;;20.40;99.90;;;;;;5050123;28;20442;-81
2021/07/19 06:28:17;;;;;;;14.40;4.87;;;20.50;99.90;;;;;;5038457;28;20435;-82
2021/07/19 06:30:43;;;;;;;11.23;4.70;;;20.50;99.90;;;;;;5041451;28;20427;-81
2021/07/19 06:33:09;;;;;;;8.70;3.73;;;20.50;99.90;;;;;;5036750;28;20175;-83
2021/07/19 06:35:35;;;;;;;19.53;4.70;;;20.50;99.90;;;;;;5051881;28;20184;-85
2021/07/19 06:38:00;;;;;;;13.93;3.63;;;20.60;99.90;;;;;;5052515;28;20176;-85
2021/07/19 06:40:26;;;;;;;12.40;4.53;;;;;;;;;;5047334;28;20463;-85
2021/07/19 06:42:52;;;;;;;8.00;4.30;;;20.70;99.90;;;;;;5035911;28;20214;-83
2021/07/19 06:45:18;;;;;;;9.20;3.97;;;20.70;99.90;;;;;;5046531;28;20431;-83
2021/07/19 06:47:44;;;;;;;12.30;3.47;;;20.70;99.90;;;;;;5055652;28;20596;-85
2021/07/19 06:50:12;;;;;;;8.63;4.07;;;20.80;99.90;;;;;;5053170;28;20192;-87
2021/07/19 06:52:39;;;;;;;13.07;4.63;;;20.90;99.90;;;;;;5049052;28;20410;-86
2021/07/19 06:55:07;;;;;;;8.43;3.97;;;20.90;99.90;;;;;;5055632;28;20390;-81
2021/07/19 06:57:33;;;;;;;20.87;3.77;;;21.00;99.90;;;;;;5053886;28;20789;-87
2021/07/19 06:59:59;;;;;;;4.90;4.00;;;;;;;;;;5049210;28;20458;-84
2021/07/19 07:02:25;;;;;;;8.73;4.30;;;21.00;99.90;;;;;;5052238;28;20235;-82
2021/07/19 07:04:50;;;;;;;9.10;4.07;;;21.00;99.90;;;;;;5055131;28;20402;-83
2021/07/19 07:07:16;;;;;;;5.03;3.40;;;;;;;;;;5055470;28;20617;-83
2021/07/19 07:09:42;;;;;;;6.80;3.67;;;;;;;;;;5042021;28;20223;-82
2021/07/19 07:12:08;;;;;;;7.37;4.00;;;;;;;;;;5034912;28;20401;-82
2021/07/19 07:14:34;;;;;;;7.27;3.77;;;;;;;;;;5035129;28;20396;-82
2021/07/19 07:17:00;;;;;;;10.03;3.70;;;;;;;;;;5039461;28;20409;-82
2021/07/19 07:19:26;;;;;;;9.03;3.30;;;21.30;99.90;;;;;;5037655;28;20797;-80
2021/07/19 07:21:52;;;;;;;5.97;3.47;;;21.40;99.90;;;;;;5055026;28;20411;-80
2021/07/19 07:24:18;;;;;;;11.23;3.83;;;21.50;99.90;;;;;;5052786;28;20238;-81
2021/07/19 07:26:44;;;;;;;7.60;3.43;;;;;;;;;;5055132;28;20181;-80
2021/07/19 07:29:10;;;;;;;13.10;3.73;;;;;;;;;;5053774;28;20614;-80
2021/07/19 07:31:36;;;;;;;8.30;4.10;;;;;;;;;;5050758;28;20481;-80
2021/07/19 07:34:16;;;;;;;5.13;4.03;;;21.70;99.90;;;;;;5054060;28;20933;-83
2021/07/19 07:37:29;;;;;;;11.03;4.30;;;21.80;99.90;;;;;;5038428;28;20920;-79
2021/07/19 07:39:56;;;;;;;8.63;3.80;;;;;;;;;;5047878;28;20935;-81
2021/07/19 07:42:29;;;;;;;9.03;4.33;;;22.00;99.90;;;;;;5066621;28;20422;-83
2021/07/19 07:45:07;;;;;;;6.83;4.40;;;22.00;99.90;;;;;;5035154;28;20467;-82
2021/07/19 07:50:55;;;;;;;5.83;3.40;;;22.00;99.90;;;;;;5043106;28;20451;-82
2021/07/19 07:54:10;;;;;;;11.17;4.40;;;22.10;99.90;;;;;;5055596;28;20399;-83
2021/07/19 08:03:20;;;;;;;6.73;4.23;;;22.20;99.90;;;;;;5055461;28;20405;-80
2021/07/19 08:05:52;;;;;;;8.10;3.87;;;22.20;99.90;;;;;;5055269;28;20503;-77
2021/07/19 08:08:18;;;;;;;5.37;4.07;;;22.20;99.90;;;;;;5055149;28;20764;-76
2021/07/19 08:10:44;;;;;;;5.60;3.20;;;22.30;99.90;;;;;;5054279;28;20410;-77
2021/07/19 08:13:09;;;;;;;7.53;3.30;;;22.30;99.90;;;;;;5054869;28;20191;-76
2021/07/19 08:15:37;;;;;;;9.37;4.37;;;22.60;99.90;;;;;;5053543;28;20191;-76
2021/07/19 08:18:16;;;;;;;7.13;3.70;;;22.60;99.90;;;;;;5055203;28;20201;-76
2021/07/19 08:20:58;;;;;;;7.20;4.10;;;22.70;99.90;;;;;;5054858;28;20420;-76
2021/07/19 08:23:46;;;;;;;9.00;4.00;;;22.70;99.90;;;;;;5054854;28;20376;-76
2021/07/19 08:26:12;;;;;;;10.37;4.50;;;22.70;99.90;;;;;;5054713;28;20394;-76
2021/07/19 08:28:38;;;;;;;9.13;3.80;;;22.70;99.90;;;;;;5055118;28;20484;-76
2021/07/19 08:31:04;;;;;;;10.07;4.03;;;22.90;99.90;;;;;;5052683;28;20242;-76
2021/07/19 08:33:40;;;;;;;8.77;4.27;;;23.00;99.90;;;;;;5051686;28;20792;-78
2021/07/19 08:36:28;;;;;;;6.77;4.57;;;23.20;99.90;;;;;;5053863;28;20704;-78
2021/07/19 08:38:58;;;;;;;6.10;4.50;;;23.20;99.90;;;;;;5054371;28;20373;-78
2021/07/19 08:44:46;;;;;;;7.40;4.13;;;23.30;99.90;;;;;;5053747;28;20402;-78
2021/07/19 08:47:38;;;;;;;11.47;3.67;;;23.30;99.90;;;;;;5054822;28;20493;-78
2021/07/19 08:50:08;;;;;;;10.43;4.07;;;23.30;99.90;;;;;;5054406;28;20235;-78
2021/07/19 08:52:36;;;;;;;7.83;4.10;;;23.30;99.90;;;;;;5053508;28;20413;-78
2021/07/19 08:55:52;;;;;;;10.33;3.67;;;23.30;99.90;;;;;;5053908;28;20402;-78
2021/07/19 09:02:01;;;;;;;7.10;4.20;;;23.10;99.90;;;;;;5033841;28;20465;-78
2021/07/19 09:04:28;;;;;;;7.90;4.33;;;23.20;99.90;;;;;;5037068;28;20374;-76
2021/07/19 09:10:24;;;;;;;9.30;3.90;;;23.20;99.90;;;;;;5053646;28;20399;-76
2021/07/19 09:13:07;;;;;;;7.27;4.13;;;23.30;99.90;;;;;;5053763;28;20871;-76
2021/07/19 09:15:36;;;;;;;8.10;4.93;;;23.40;99.90;;;;;;5053842;28;20402;-76
2021/07/19 09:18:46;;;;;;;7.33;5.03;;;23.50;99.90;;;;;;5053988;28;20425;-77
2021/07/19 09:21:44;;;;;;;11.93;4.57;;;23.70;99.90;;;;;;5053633;28;20581;-78
2021/07/19 09:24:26;;;;;;;8.03;4.97;;;23.70;99.90;;;;;;4972892;28;20847;-78
2021/07/19 09:26:59;;;;;;;6.40;4.90;;;23.70;99.90;;;;;;4972424;28;20434;-79
2021/07/19 09:29:47;;;;;;;11.00;5.33;;;23.70;99.90;;;;;;4972884;28;20536;-78
2021/07/19 09:32:28;;;;;;;9.60;5.30;;;23.80;99.90;;;;;;4972145;28;21013;-78
2021/07/19 09:35:10;;;;;;;9.10;5.57;;;23.70;99.90;;;;;;4973158;28;21006;-76
2021/07/19 09:37:41;;;;;;;11.17;6.00;;;23.70;99.90;;;;;;4972403;28;20410;-76
2021/07/19 09:40:07;;;;;;;10.83;6.63;;;23.80;99.90;;;;;;4972725;28;21012;-76
2021/07/19 09:42:42;;;;;;;10.13;6.30;;;23.90;99.90;;;;;;4972665;28;20772;-76
2021/07/19 09:45:09;;;;;;;12.63;7.30;;;23.90;99.90;;;;;;4988686;28;20891;-76
2021/07/19 09:47:47;;;;;;;12.47;6.80;;;24.10;99.90;;;;;;4972714;28;20428;-76
2021/07/19 09:51:00;;;;;;;18.60;7.40;;;24.20;99.90;;;;;;4972504;28;20411;-78
2021/07/19 09:54:18;;;;;;;14.53;7.00;;;24.30;99.90;;;;;;4877338;29;20451;-78
2021/07/19 09:56:44;;;;;;;14.80;6.47;;;24.30;99.90;;;;;;4822528;29;20775;-78
2021/07/19 09:59:11;;;;;;;13.17;7.40;;;24.40;99.90;;;;;;4822829;29;20423;-78
2021/07/19 10:01:41;;;;;;;10.27;6.80;;;24.30;99.90;;;;;;4892033;29;20592;-78
2021/07/19 10:04:09;;;;;;;14.67;7.87;;;24.50;99.90;;;;;;4896714;29;20475;-75
2021/07/19 10:06:39;;;;;;;12.07;7.93;;;24.50;99.90;;;;;;4900055;29;20459;-75
2021/07/19 10:09:13;;;;;;;15.47;7.97;;;24.60;99.90;;;;;;4899826;29;20410;-75
2021/07/19 10:11:52;;;;;;;17.40;8.03;;;24.60;99.90;;;;;;4883742;29;20508;-75
2021/07/19 10:14:29;;;;;;;20.07;8.53;;;24.80;99.90;;;;;;4899146;29;20454;-75
2021/07/19 10:16:59;;;;;;;15.77;8.87;;;24.70;99.90;;;;;;4883621;29;20436;-75
2021/07/19 10:19:38;;;;;;;11.73;7.50;;;24.80;99.90;;;;;;4899751;29;20424;-77
2021/07/19 10:22:04;;;;;;;10.47;7.10;;;24.80;99.90;;;;;;4899361;29;20438;-78
2021/07/19 10:27:51;;;;;;;14.80;7.27;;;24.60;99.90;;;;;;4890992;29;20928;-78
2021/07/19 10:30:22;;;;;;;14.67;8.70;;;24.60;99.90;;;;;;4964901;28;20435;-77
2021/07/19 10:32:59;;;;;;;12.07;7.50;;;24.60;99.90;;;;;;5037659;28;20282;-76
2021/07/19 10:35:29;;;;;;;11.80;7.13;;;24.70;99.90;;;;;;5057435;28;20764;-77
2021/07/19 10:38:12;;;;;;;15.20;7.10;;;24.70;99.90;;;;;;5056540;28;20781;-75
2021/07/19 10:40:53;;;;;;;12.03;7.13;;;24.70;99.90;;;;;;5043323;28;21027;-75
2021/07/19 10:43:19;;;;;;;10.53;7.37;;;24.90;99.90;;;;;;5041163;28;20416;-75
2021/07/19 10:45:59;;;;;;;12.50;7.83;;;24.90;99.90;;;;;;5056076;28;20397;-76
2021/07/19 10:48:33;;;;;;;10.73;7.30;;;24.90;99.90;;;;;;5056324;28;20153;-75
2021/07/19 10:51:21;;;;;;;13.90;8.47;;;25.00;99.90;;;;;;5056987;28;20445;-82
2021/07/19 10:53:47;;;;;;;14.43;8.67;;;25.00;99.90;;;;;;5056571;28;20417;-76
2021/07/19 10:56:47;;;;;;;18.23;8.27;;;25.10;99.90;;;;;;5056739;28;20407;-76
2021/07/19 10:59:27;;;;;;;18.47;8.17;;;25.30;99.90;;;;;;5056620;28;20442;-76
2021/07/19 11:01:57;;;;;;;15.30;9.20;;;25.40;99.90;;;;;;5056363;28;20525;-76
2021/07/19 11:04:23;;;;;;;12.83;8.10;;;25.40;99.90;;;;;;5056751;28;20386;-76
2021/07/19 11:06:57;;;;;;;12.30;8.30;;;25.50;99.90;;;;;;5056299;28;20473;-75
2021/07/19 11:09:36;;;;;;;15.57;7.93;;;25.60;99.90;;;;;;5056437;28;20381;-77
2021/07/19 11:12:16;;;;;;;11.63;7.93;;;25.60;99.90;;;;;;5055836;28;20413;-76
2021/07/19 11:14:50;;;;;;;16.60;8.83;;;25.50;99.90;;;;;;5056002;28;20401;-76
2021/07/19 11:17:19;;;;;;;12.83;7.60;;;25.50;99.90;;;;;;5035285;28;20502;-76
2021/07/19 11:19:53;;;;;;;12.20;8.43;;;25.60;99.90;;;;;;5040340;28;20452;-76
2021/07/19 11:22:23;;;;;;;15.67;9.10;;;25.50;99.90;;;;;;5056060;28;20904;-76
2021/07/19 11:24:54;;;;;;;12.47;8.17;;;25.50;99.90;;;;;;5056266;28;20758;-76
2021/07/19 11:27:52;;;;;;;17.00;8.50;;;25.70;99.90;;;;;;5056165;28;20466;-76
2021/07/19 11:30:40;;;;;;;15.70;9.37;;;25.80;99.90;;;;;;5055856;28;20730;-76
2021/07/19 11:33:11;;;;;;;12.77;8.87;;;25.80;99.90;;;;;;5043350;28;20419;-76
2021/07/19 11:39:17;;;;;;;15.30;9.90;;;26.00;99.90;;;;;;5035643;28;20482;-79
2021/07/19 11:45:37;;;;;;;14.73;9.57;;;26.20;99.90;;;;;;5044135;28;20450;-79
2021/07/19 11:48:06;;;;;;;29.00;12.67;;;26.20;99.90;;;;;;5038284;28;20436;-78
2021/07/19 11:50:40;;;;;;;14.80;9.40;;;26.20;99.90;;;;;;5045273;28;20430;-76
2021/07/19 11:53:21;;;;;;;17.43;9.70;;;26.20;99.90;;;;;;5054064;28;20419;-75
2021/07/19 11:55:47;;;;;;;15.87;9.70;;;26.20;99.90;;;;;;5055420;28;20420;-76
2021/07/19 11:58:14;;;;;;;16.03;9.57;;;26.30;99.90;;;;;;5055602;28;20405;-76
2021/07/19 12:01:01;;;;;;;18.30;11.03;;;26.40;99.90;;;;;;5055330;28;20483;-76
2021/07/19 12:03:34;;;;;;;16.17;9.30;;;26.50;99.90;;;;;;5048973;28;20429;-76
2021/07/19 12:06:01;;;;;;;15.07;9.70;;;26.50;99.90;;;;;;5052829;28;20449;-76
2021/07/19 12:08:34;;;;;;;18.47;11.47;;;26.40;99.90;;;;;;5054728;28;20415;-75
2021/07/19 12:11:07;;;;;;;16.27;9.70;;;26.50;99.90;;;;;;5054812;28;20418;-75
2021/07/19 12:13:39;;;;;;;17.93;10.73;;;26.50;99.90;;;;;;5055197;28;20469;-75
2021/07/19 12:16:13;;;;;;;14.67;9.53;;;26.50;99.90;;;;;;5050141;28;20418;-75
2021/07/19 12:18:45;;;;;;;16.70;10.60;;;26.70;99.90;;;;;;5034942;28;20755;-76
2021/07/19 12:21:14;;;;;;;19.20;10.47;;;26.90;99.90;;;;;;5042916;28;20916;-76
2021/07/19 12:23:46;;;;;;;16.13;10.40;;;26.90;99.90;;;;;;5035258;28;20403;-75
2021/07/19 12:26:17;;;;;;;22.47;10.20;;;27.00;99.90;;;;;;5047319;28;20424;-75
2021/07/19 12:29:07;;;;;;;20.50;11.17;;;27.00;99.90;;;;;;5049305;28;20478;-76
2021/07/19 12:31:46;;;;;;;18.40;10.87;;;27.10;99.90;;;;;;5048956;28;20529;-75
2021/07/19 12:34:34;;;;;;;21.83;10.73;;;27.10;99.90;;;;;;5033673;28;20413;-75
2021/07/19 12:37:46;;;;;;;18.53;11.00;;;27.00;99.90;;;;;;5049931;28;20425;-77
2021/07/19 12:40:12;;;;;;;16.47;10.77;;;27.00;99.90;;;;;;5041845;28;20471;-77
2021/07/19 12:42:58;;;;;;;17.53;10.60;;;27.20;99.90;;;;;;5034114;28;20436;-77
2021/07/19 12:45:25;;;;;;;22.60;11.47;;;27.10;99.90;;;;;;5036880;28;20387;-78
2021/07/19 12:48:10;;;;;;;19.03;11.00;;;27.20;99.90;;;;;;5054469;28;20413;-78
2021/07/19 12:50:40;;;;;;;31.53;11.17;;;27.20;99.90;;;;;;5046420;28;20919;-75
2021/07/19 12:53:14;;;;;;;16.27;10.20;;;27.30;99.90;;;;;;5050459;28;20929;-75
2021/07/19 12:55:40;;;;;;;17.93;10.77;;;27.30;99.90;;;;;;5053698;28;20765;-76
2021/07/19 12:58:16;;;;;;;19.17;11.23;;;27.40;99.90;;;;;;5053772;28;20415;-75
2021/07/19 13:00:42;;;;;;;15.33;10.20;;;27.30;99.90;;;;;;5054189;28;20935;-75
2021/07/19 13:03:09;;;;;;;25.30;11.10;;;;;;;;;;5053626;28;20423;-75
2021/07/19 13:05:45;;;;;;;16.00;10.83;;;27.60;99.90;;;;;;5048925;28;20191;-77
2021/07/19 13:08:35;;;;;;;15.93;10.47;;;27.60;99.90;;;;;;5049793;28;20420;-78
2021/07/19 13:11:14;;;;;;;22.43;11.40;;;27.70;99.90;;;;;;5040531;28;20419;-78
2021/07/19 13:14:13;;;;;;;15.20;10.50;;;27.70;99.90;;;;;;5052207;28;20427;-78
2021/07/19 13:16:44;;;;;;;20.80;11.47;;;27.80;99.90;;;;;;5049410;28;20433;-77
2021/07/19 13:19:13;;;;;;;17.23;10.97;;;27.80;99.90;;;;;;5051369;28;20478;-77
2021/07/19 13:21:42;;;;;;;18.13;11.67;;;27.90;99.90;;;;;;5052027;28;20447;-77
2021/07/19 13:27:43;;;;;;;17.90;11.60;;;28.10;99.90;;;;;;5046567;28;20409;-78
2021/07/19 13:30:43;;;;;;;20.37;10.70;;;28.30;99.90;;;;;;5043105;28;20558;-78
2021/07/19 13:33:58;;;;;;;20.53;11.77;;;28.40;99.90;;;;;;4991834;28;20474;-78
2021/07/19 13:36:35;;;;;;;17.63;10.50;;;;;;;;;;4992240;28;20427;-76
2021/07/19 13:39:11;;;;;;;18.20;10.87;;;28.30;99.90;;;;;;4991725;28;20817;-76
2021/07/19 13:41:36;;;;;;;18.93;11.27;;;28.50;99.90;;;;;;4991172;28;20473;-75
2021/07/19 13:44:03;;;;;;;20.80;11.30;;;28.50;99.90;;;;;;4991645;28;20445;-76
2021/07/19 13:46:35;;;;;;;17.90;11.20;;;28.60;99.90;;;;;;5010757;28;20191;-75
2021/07/19 13:49:00;;;;;;;22.20;12.20;;;28.70;99.90;;;;;;5003737;28;20430;-76
2021/07/19 13:51:26;;;;;;;42.13;15.30;;;28.70;99.90;;;;;;5000825;28;20524;-75
2021/07/19 13:53:52;;;;;;;29.40;12.87;;;28.70;99.90;;;;;;4991231;28;20201;-75
2021/07/19 13:59:39;;;;;;;18.50;12.03;;;28.90;99.90;;;;;;4991249;28;20245;-75
2021/07/19 14:02:05;;;;;;;18.80;12.23;;;28.80;99.90;;;;;;5001768;28;20512;-75